sensor_id;sensor_type;location;lat;lon;timestamp;pressure;altitude;pressure_sealevel;temperature;humidity
77153;BME280;66124;51.146;17.072;2023-04-01T00:02:07;98356.96;;;8.96;79.01
77153;BME280;66124;51.146;17.072;2023-04-01T00:04:36;98357.86;;;8.96;79.16
77153;BME280;66124;51.146;17.072;2023-04-01T00:07:05;98358.50;;;8.96;79.27
77153;BME280;66124;51.146;17.072;2023-04-01T00:09:35;98358.69;;;8.97;79.25
77153;BME280;66124;51.146;17.072;2023-04-01T00:12:05;98353.52;;;8.98;79.26
77153;BME280;66124;51.146;17.072;2023-04-01T00:14:34;98355.11;;;9.00;79.45
77153;BME280;66124;51.146;17.072;2023-04-01T00:17:03;98355.17;;;9.02;79.29
77153;BME280;66124;51.146;17.072;2023-04-01T00:19:33;98355.80;;;9.05;79.27
77153;BME280;66124;51.146;17.072;2023-04-01T00:22:02;98356.67;;;9.08;79.26
77153;BME280;66124;51.146;17.072;2023-04-01T00:24:31;98354.30;;;9.11;79.17
77153;BME280;66124;51.146;17.072;2023-04-01T00:27:01;98354.38;;;9.16;79.22
77153;BME280;66124;51.146;17.072;2023-04-01T00:29:30;98356.70;;;9.19;79.00
77153;BME280;66124;51.146;17.072;2023-04-01T00:31:59;98348.91;;;9.22;79.13
77153;BME280;66124;51.146;17.072;2023-04-01T00:34:27;98353.20;;;9.25;78.94
77153;BME280;66124;51.146;17.072;2023-04-01T00:36:55;98356.81;;;9.28;78.66
77153;BME280;66124;51.146;17.072;2023-04-01T00:44:36;98359.56;;;9.41;78.49
77153;BME280;66124;51.146;17.072;2023-04-01T00:47:06;98350.60;;;9.42;78.30
77153;BME280;66124;51.146;17.072;2023-04-01T00:49:39;98354.24;;;9.43;78.14
77153;BME280;66124;51.146;17.072;2023-04-01T00:52:10;98348.56;;;9.45;78.26
77153;BME280;66124;51.146;17.072;2023-04-01T00:54:42;98350.16;;;9.46;78.26
77153;BME280;66124;51.146;17.072;2023-04-01T00:57:15;98350.53;;;9.46;78.07
77153;BME280;66124;51.146;17.072;2023-04-01T00:59:47;98353.56;;;9.46;78.24
77153;BME280;66124;51.146;17.072;2023-04-01T01:02:18;98358.60;;;9.45;78.07
77153;BME280;66124;51.146;17.072;2023-04-01T01:04:48;98356.63;;;9.44;77.99
77153;BME280;66124;51.146;17.072;2023-04-01T01:07:22;98360.05;;;9.44;78.13
77153;BME280;66124;51.146;17.072;2023-04-01T01:10:03;98361.55;;;9.45;78.10
77153;BME280;66124;51.146;17.072;2023-04-01T01:12:43;98357.48;;;9.47;78.09
77153;BME280;66124;51.146;17.072;2023-04-01T01:15:19;98359.44;;;9.49;78.06
77153;BME280;66124;51.146;17.072;2023-04-01T01:17:56;98363.41;;;9.49;78.16
77153;BME280;66124;51.146;17.072;2023-04-01T01:27:00;98348.16;;;9.44;78.13
77153;BME280;66124;51.146;17.072;2023-04-01T01:32:51;98353.36;;;9.41;78.41
77153;BME280;66124;51.146;17.072;2023-04-01T01:35:28;98360.36;;;9.39;78.56
77153;BME280;66124;51.146;17.072;2023-04-01T01:38:03;98358.74;;;9.38;78.58
77153;BME280;66124;51.146;17.072;2023-04-01T01:40:35;98356.86;;;9.36;78.54
77153;BME280;66124;51.146;17.072;2023-04-01T01:43:09;98358.89;;;9.36;78.61
77153;BME280;66124;51.146;17.072;2023-04-01T01:45:43;98356.36;;;9.34;78.63
77153;BME280;66124;51.146;17.072;2023-04-01T01:48:14;98352.85;;;9.33;78.88
77153;BME280;66124;51.146;17.072;2023-04-01T01:50:46;98351.59;;;9.29;79.01
77153;BME280;66124;51.146;17.072;2023-04-01T01:53:16;98350.85;;;9.29;79.14
77153;BME280;66124;51.146;17.072;2023-04-01T02:04:24;98340.40;;;9.30;79.19
77153;BME280;66124;51.146;17.072;2023-04-01T02:06:58;98339.85;;;9.29;79.39
77153;BME280;66124;51.146;17.072;2023-04-01T02:09:29;98342.02;;;9.30;79.38
77153;BME280;66124;51.146;17.072;2023-04-01T02:12:00;98340.45;;;9.30;79.39
77153;BME280;66124;51.146;17.072;2023-04-01T02:14:34;98338.06;;;9.30;79.32
77153;BME280;66124;51.146;17.072;2023-04-01T02:17:08;98337.45;;;9.31;79.38
77153;BME280;66124;51.146;17.072;2023-04-01T02:19:40;98339.59;;;9.32;79.49
77153;BME280;66124;51.146;17.072;2023-04-01T02:22:16;98333.88;;;9.33;79.33
77153;BME280;66124;51.146;17.072;2023-04-01T02:24:46;98329.08;;;9.35;79.42
77153;BME280;66124;51.146;17.072;2023-04-01T02:27:17;98326.40;;;9.35;79.48
77153;BME280;66124;51.146;17.072;2023-04-01T02:29:48;98326.40;;;9.36;79.33
77153;BME280;66124;51.146;17.072;2023-04-01T02:32:18;98329.73;;;9.37;79.42
77153;BME280;66124;51.146;17.072;2023-04-01T02:34:48;98328.23;;;9.38;79.42
77153;BME280;66124;51.146;17.072;2023-04-01T02:37:18;98327.11;;;9.37;79.38
77153;BME280;66124;51.146;17.072;2023-04-01T02:39:48;98329.26;;;9.37;79.27
77153;BME280;66124;51.146;17.072;2023-04-01T02:42:17;98324.56;;;9.36;79.37
77153;BME280;66124;51.146;17.072;2023-04-01T02:44:47;98322.64;;;9.35;79.42
77153;BME280;66124;51.146;17.072;2023-04-01T02:47:17;98320.61;;;9.35;79.40
77153;BME280;66124;51.146;17.072;2023-04-01T02:49:46;98319.10;;;9.32;79.49
77153;BME280;66124;51.146;17.072;2023-04-01T02:52:15;98328.60;;;9.34;79.49
77153;BME280;66124;51.146;17.072;2023-04-01T02:54:45;98331.03;;;9.33;79.36
77153;BME280;66124;51.146;17.072;2023-04-01T02:57:14;98328.87;;;9.31;79.57
77153;BME280;66124;51.146;17.072;2023-04-01T02:59:43;98338.15;;;9.30;79.65
77153;BME280;66124;51.146;17.072;2023-04-01T03:02:13;98335.89;;;9.29;79.74
77153;BME280;66124;51.146;17.072;2023-04-01T03:04:42;98335.33;;;9.27;79.67
77153;BME280;66124;51.146;17.072;2023-04-01T03:07:12;98341.55;;;9.28;79.85
77153;BME280;66124;51.146;17.072;2023-04-01T03:09:41;98340.83;;;9.28;79.57
77153;BME280;66124;51.146;17.072;2023-04-01T03:12:11;98343.15;;;9.32;79.37
77153;BME280;66124;51.146;17.072;2023-04-01T03:17:46;98344.34;;;9.42;79.28
77153;BME280;66124;51.146;17.072;2023-04-01T03:20:16;98344.79;;;9.42;79.20
77153;BME280;66124;51.146;17.072;2023-04-01T03:22:45;98346.09;;;9.45;79.39
77153;BME280;66124;51.146;17.072;2023-04-01T03:25:15;98345.38;;;9.48;79.29
77153;BME280;66124;51.146;17.072;2023-04-01T03:27:44;98347.38;;;9.50;79.32
77153;BME280;66124;51.146;17.072;2023-04-01T03:30:14;98348.61;;;9.51;79.22
77153;BME280;66124;51.146;17.072;2023-04-01T03:32:44;98351.89;;;9.51;79.44
77153;BME280;66124;51.146;17.072;2023-04-01T03:35:13;98348.52;;;9.52;79.24
77153;BME280;66124;51.146;17.072;2023-04-01T03:37:43;98348.77;;;9.51;79.33
77153;BME280;66124;51.146;17.072;2023-04-01T03:40:13;98349.68;;;9.51;79.41
77153;BME280;66124;51.146;17.072;2023-04-01T03:42:42;98352.73;;;9.49;79.32
77153;BME280;66124;51.146;17.072;2023-04-01T03:45:12;98353.15;;;9.47;79.53
77153;BME280;66124;51.146;17.072;2023-04-01T03:47:42;98352.60;;;9.45;79.68
77153;BME280;66124;51.146;17.072;2023-04-01T03:50:12;98354.57;;;9.43;79.97
77153;BME280;66124;51.146;17.072;2023-04-01T03:52:41;98359.06;;;9.39;80.21
77153;BME280;66124;51.146;17.072;2023-04-01T03:55:10;98358.98;;;9.35;80.30
77153;BME280;66124;51.146;17.072;2023-04-01T03:57:40;98360.33;;;9.29;80.51
77153;BME280;66124;51.146;17.072;2023-04-01T04:00:11;98362.73;;;9.24;80.55
77153;BME280;66124;51.146;17.072;2023-04-01T04:02:41;98366.32;;;9.19;80.83
77153;BME280;66124;51.146;17.072;2023-04-01T04:05:10;98366.52;;;9.15;81.13
77153;BME280;66124;51.146;17.072;2023-04-01T04:07:40;98365.95;;;9.10;81.32
77153;BME280;66124;51.146;17.072;2023-04-01T04:10:10;98368.08;;;9.06;81.68
77153;BME280;66124;51.146;17.072;2023-04-01T04:12:39;98370.43;;;9.02;81.88
77153;BME280;66124;51.146;17.072;2023-04-01T04:15:10;98369.20;;;8.99;81.91
77153;BME280;66124;51.146;17.072;2023-04-01T04:17:40;98369.52;;;8.95;82.13
77153;BME280;66124;51.146;17.072;2023-04-01T04:20:10;98373.95;;;8.91;82.61
77153;BME280;66124;51.146;17.072;2023-04-01T04:22:40;98375.56;;;8.87;82.64
77153;BME280;66124;51.146;17.072;2023-04-01T04:25:10;98372.44;;;8.82;82.94
77153;BME280;66124;51.146;17.072;2023-04-01T04:27:38;98378.66;;;8.76;83.35
77153;BME280;66124;51.146;17.072;2023-04-01T04:30:07;98378.78;;;8.71;83.42
77153;BME280;66124;51.146;17.072;2023-04-01T04:38:32;98374.33;;;8.60;84.32
77153;BME280;66124;51.146;17.072;2023-04-01T04:41:01;98376.02;;;8.57;84.36
77153;BME280;66124;51.146;17.072;2023-04-01T04:43:31;98376.79;;;8.55;84.61
77153;BME280;66124;51.146;17.072;2023-04-01T04:46:03;98379.37;;;8.54;84.66
77153;BME280;66124;51.146;17.072;2023-04-01T04:48:33;98380.84;;;8.52;84.89
77153;BME280;66124;51.146;17.072;2023-04-01T04:51:02;98377.45;;;8.52;84.95
77153;BME280;66124;51.146;17.072;2023-04-01T04:53:32;98378.91;;;8.51;85.10
77153;BME280;66124;51.146;17.072;2023-04-01T04:56:01;98386.14;;;8.51;85.19
77153;BME280;66124;51.146;17.072;2023-04-01T04:58:30;98384.73;;;8.51;85.20
77153;BME280;66124;51.146;17.072;2023-04-01T05:01:04;98383.67;;;8.51;85.46
77153;BME280;66124;51.146;17.072;2023-04-01T05:03:34;98384.40;;;8.50;85.59
77153;BME280;66124;51.146;17.072;2023-04-01T05:06:03;98381.86;;;8.49;85.68
77153;BME280;66124;51.146;17.072;2023-04-01T05:08:34;98389.05;;;8.51;85.74
77153;BME280;66124;51.146;17.072;2023-04-01T05:11:06;98389.08;;;8.52;85.80
77153;BME280;66124;51.146;17.072;2023-04-01T05:13:36;98394.09;;;8.53;85.92
77153;BME280;66124;51.146;17.072;2023-04-01T05:16:09;98389.12;;;8.53;86.02
77153;BME280;66124;51.146;17.072;2023-04-01T05:18:39;98393.55;;;8.54;86.00
77153;BME280;66124;51.146;17.072;2023-04-01T05:21:10;98392.63;;;8.54;86.17
77153;BME280;66124;51.146;17.072;2023-04-01T05:23:40;98391.45;;;8.55;86.16
77153;BME280;66124;51.146;17.072;2023-04-01T05:26:12;98392.38;;;8.56;86.11
77153;BME280;66124;51.146;17.072;2023-04-01T05:28:42;98391.77;;;8.57;86.20
77153;BME280;66124;51.146;17.072;2023-04-01T05:31:11;98394.32;;;8.58;86.32
77153;BME280;66124;51.146;17.072;2023-04-01T05:33:41;98395.20;;;8.57;86.42
77153;BME280;66124;51.146;17.072;2023-04-01T05:36:13;98393.02;;;8.58;86.40
77153;BME280;66124;51.146;17.072;2023-04-01T05:38:43;98394.63;;;8.59;86.48
77153;BME280;66124;51.146;17.072;2023-04-01T05:41:13;98393.09;;;8.60;86.62
77153;BME280;66124;51.146;17.072;2023-04-01T05:43:43;98393.19;;;8.62;86.52
77153;BME280;66124;51.146;17.072;2023-04-01T05:46:12;98393.75;;;8.62;86.56
77153;BME280;66124;51.146;17.072;2023-04-01T05:48:42;98395.77;;;8.64;86.44
77153;BME280;66124;51.146;17.072;2023-04-01T05:51:12;98394.93;;;8.66;86.58
77153;BME280;66124;51.146;17.072;2023-04-01T05:57:57;98392.37;;;8.71;86.52
77153;BME280;66124;51.146;17.072;2023-04-01T06:00:26;98394.92;;;8.69;86.92
77153;BME280;66124;51.146;17.072;2023-04-01T06:02:56;98396.81;;;8.70;86.85
77153;BME280;66124;51.146;17.072;2023-04-01T06:05:38;98401.52;;;8.68;86.89
77153;BME280;66124;51.146;17.072;2023-04-01T06:08:12;98404.02;;;8.68;86.98
77153;BME280;66124;51.146;17.072;2023-04-01T06:10:52;98408.06;;;8.68;87.04
77153;BME280;66124;51.146;17.072;2023-04-01T06:13:35;98409.16;;;8.68;87.13
77153;BME280;66124;51.146;17.072;2023-04-01T06:16:15;98411.27;;;8.68;87.29
77153;BME280;66124;51.146;17.072;2023-04-01T06:19:01;98414.61;;;8.67;87.26
77153;BME280;66124;51.146;17.072;2023-04-01T06:21:49;98416.31;;;8.68;87.19
77153;BME280;66124;51.146;17.072;2023-04-01T06:24:33;98415.80;;;8.68;87.43
77153;BME280;66124;51.146;17.072;2023-04-01T06:27:18;98422.61;;;8.68;87.41
77153;BME280;66124;51.146;17.072;2023-04-01T06:30:02;98419.63;;;8.67;87.52
77153;BME280;66124;51.146;17.072;2023-04-01T06:32:58;98424.56;;;8.69;87.62
77153;BME280;66124;51.146;17.072;2023-04-01T06:41:31;98423.69;;;8.73;87.68
77153;BME280;66124;51.146;17.072;2023-04-01T06:44:16;98428.89;;;8.74;87.79
77153;BME280;66124;51.146;17.072;2023-04-01T06:46:50;98428.48;;;8.76;87.74
77153;BME280;66124;51.146;17.072;2023-04-01T06:49:36;98429.39;;;8.78;87.83
77153;BME280;66124;51.146;17.072;2023-04-01T06:52:15;98429.73;;;8.81;87.68
77153;BME280;66124;51.146;17.072;2023-04-01T06:54:51;98433.83;;;8.83;87.86
77153;BME280;66124;51.146;17.072;2023-04-01T06:57:28;98432.25;;;8.86;87.87
77153;BME280;66124;51.146;17.072;2023-04-01T07:00:03;98431.39;;;8.89;87.94
77153;BME280;66124;51.146;17.072;2023-04-01T07:02:39;98432.81;;;8.92;87.87
77153;BME280;66124;51.146;17.072;2023-04-01T07:05:12;98431.53;;;8.97;87.84
77153;BME280;66124;51.146;17.072;2023-04-01T07:07:43;98432.12;;;9.01;87.85
77153;BME280;66124;51.146;17.072;2023-04-01T07:13:23;98433.17;;;9.12;87.76
77153;BME280;66124;51.146;17.072;2023-04-01T07:16:03;98430.27;;;9.16;87.76
77153;BME280;66124;51.146;17.072;2023-04-01T07:18:40;98432.46;;;9.20;87.69
77153;BME280;66124;51.146;17.072;2023-04-01T07:21:20;98432.45;;;9.23;87.52
77153;BME280;66124;51.146;17.072;2023-04-01T07:23:52;98438.64;;;9.26;87.66
77153;BME280;66124;51.146;17.072;2023-04-01T07:26:24;98435.36;;;9.28;87.57
77153;BME280;66124;51.146;17.072;2023-04-01T07:28:54;98437.95;;;9.32;87.57
77153;BME280;66124;51.146;17.072;2023-04-01T07:31:37;98438.25;;;9.35;87.60
77153;BME280;66124;51.146;17.072;2023-04-01T07:34:12;98438.88;;;9.38;87.59
77153;BME280;66124;51.146;17.072;2023-04-01T07:36:48;98442.27;;;9.41;87.43
77153;BME280;66124;51.146;17.072;2023-04-01T07:39:33;98442.84;;;9.43;87.42
77153;BME280;66124;51.146;17.072;2023-04-01T07:42:12;98443.96;;;9.44;87.29
77153;BME280;66124;51.146;17.072;2023-04-01T07:44:51;98450.23;;;9.44;87.32
77153;BME280;66124;51.146;17.072;2023-04-01T07:47:33;98451.56;;;9.45;87.42
77153;BME280;66124;51.146;17.072;2023-04-01T07:50:13;98456.50;;;9.46;87.43
77153;BME280;66124;51.146;17.072;2023-04-01T07:52:56;98454.92;;;9.46;87.44
77153;BME280;66124;51.146;17.072;2023-04-01T07:55:31;98454.55;;;9.47;87.23
77153;BME280;66124;51.146;17.072;2023-04-01T07:58:07;98454.09;;;9.47;87.48
77153;BME280;66124;51.146;17.072;2023-04-01T08:00:44;98460.75;;;9.53;87.29
77153;BME280;66124;51.146;17.072;2023-04-01T08:03:28;98460.29;;;9.57;87.28
77153;BME280;66124;51.146;17.072;2023-04-01T08:06:03;98464.58;;;9.65;87.07
77153;BME280;66124;51.146;17.072;2023-04-01T08:08:48;98467.59;;;9.74;86.95
77153;BME280;66124;51.146;17.072;2023-04-01T08:11:28;98468.04;;;9.81;86.89
77153;BME280;66124;51.146;17.072;2023-04-01T08:14:07;98472.74;;;9.89;86.73
77153;BME280;66124;51.146;17.072;2023-04-01T08:16:45;98473.48;;;9.96;86.49
77153;BME280;66124;51.146;17.072;2023-04-01T08:19:25;98477.33;;;10.05;86.69
77153;BME280;66124;51.146;17.072;2023-04-01T08:22:01;98473.54;;;10.13;86.22
77153;BME280;66124;51.146;17.072;2023-04-01T08:24:33;98475.56;;;10.17;86.11
77153;BME280;66124;51.146;17.072;2023-04-01T08:33:19;98477.13;;;10.37;85.66
77153;BME280;66124;51.146;17.072;2023-04-01T08:35:54;98480.73;;;10.39;85.36
77153;BME280;66124;51.146;17.072;2023-04-01T08:38:28;98480.01;;;10.41;85.05
77153;BME280;66124;51.146;17.072;2023-04-01T08:41:11;98479.36;;;10.43;84.60
77153;BME280;66124;51.146;17.072;2023-04-01T08:43:53;98480.76;;;10.48;85.04
77153;BME280;66124;51.146;17.072;2023-04-01T08:49:31;98485.65;;;10.57;84.09
77153;BME280;66124;51.146;17.072;2023-04-01T08:52:27;98481.82;;;10.58;84.27
77153;BME280;66124;51.146;17.072;2023-04-01T08:55:14;98482.15;;;10.58;84.15
77153;BME280;66124;51.146;17.072;2023-04-01T08:57:59;98486.31;;;10.58;84.27
77153;BME280;66124;51.146;17.072;2023-04-01T09:00:35;98487.23;;;10.63;84.08
77153;BME280;66124;51.146;17.072;2023-04-01T09:03:22;98493.06;;;10.67;83.88
77153;BME280;66124;51.146;17.072;2023-04-01T09:06:25;98491.67;;;10.74;83.50
77153;BME280;66124;51.146;17.072;2023-04-01T09:09:34;98488.52;;;10.83;83.65
77153;BME280;66124;51.146;17.072;2023-04-01T09:12:30;98487.13;;;10.92;83.30
77153;BME280;66124;51.146;17.072;2023-04-01T09:15:32;98493.05;;;11.00;82.70
77153;BME280;66124;51.146;17.072;2023-04-01T09:18:23;98494.33;;;11.08;82.65
77153;BME280;66124;51.146;17.072;2023-04-01T09:21:11;98500.38;;;11.12;82.26
77153;BME280;66124;51.146;17.072;2023-04-01T09:23:53;98502.27;;;11.17;81.94
77153;BME280;66124;51.146;17.072;2023-04-01T09:29:32;98503.95;;;11.34;81.66
77153;BME280;66124;51.146;17.072;2023-04-01T09:32:25;98508.54;;;11.38;81.66
77153;BME280;66124;51.146;17.072;2023-04-01T09:35:06;98510.78;;;11.44;81.41
77153;BME280;66124;51.146;17.072;2023-04-01T09:37:54;98509.96;;;11.47;81.24
77153;BME280;66124;51.146;17.072;2023-04-01T09:40:36;98511.60;;;11.51;81.23
77153;BME280;66124;51.146;17.072;2023-04-01T09:43:30;98519.48;;;11.53;81.16
77153;BME280;66124;51.146;17.072;2023-04-01T09:54:13;98519.84;;;11.19;81.56
77153;BME280;66124;51.146;17.072;2023-04-01T09:57:11;98527.48;;;11.11;81.71
77153;BME280;66124;51.146;17.072;2023-04-01T10:00:08;98528.00;;;11.05;81.62
77153;BME280;66124;51.146;17.072;2023-04-01T10:03:11;98527.39;;;11.00;81.38
77153;BME280;66124;51.146;17.072;2023-04-01T10:09:25;98533.52;;;11.00;82.05
77153;BME280;66124;51.146;17.072;2023-04-01T10:12:38;98534.40;;;11.04;81.78
77153;BME280;66124;51.146;17.072;2023-04-01T10:15:39;98541.26;;;11.07;81.09
77153;BME280;66124;51.146;17.072;2023-04-01T10:21:55;98540.65;;;11.25;81.25
77153;BME280;66124;51.146;17.072;2023-04-01T10:24:55;98544.41;;;11.31;81.31
77153;BME280;66124;51.146;17.072;2023-04-01T10:27:44;98552.39;;;11.27;81.01
77153;BME280;66124;51.146;17.072;2023-04-01T10:34:14;98562.00;;;10.87;80.95
77153;BME280;66124;51.146;17.072;2023-04-01T10:36:56;98566.84;;;10.52;81.42
77153;BME280;66124;51.146;17.072;2023-04-01T10:54:50;98577.91;;;9.58;83.80
77153;BME280;66124;51.146;17.072;2023-04-01T10:57:46;98573.24;;;9.55;83.81
77153;BME280;66124;51.146;17.072;2023-04-01T11:00:30;98570.69;;;9.56;83.92
77153;BME280;66124;51.146;17.072;2023-04-01T11:03:46;98570.73;;;9.60;84.32
77153;BME280;66124;51.146;17.072;2023-04-01T11:06:38;98566.68;;;9.67;84.32
77153;BME280;66124;51.146;17.072;2023-04-01T11:12:48;98570.03;;;9.84;84.62
77153;BME280;66124;51.146;17.072;2023-04-01T11:15:42;98568.13;;;9.94;84.47
77153;BME280;66124;51.146;17.072;2023-04-01T11:27:03;98569.38;;;10.89;84.63
77153;BME280;66124;51.146;17.072;2023-04-01T11:29:54;98563.30;;;11.33;83.93
77153;BME280;66124;51.146;17.072;2023-04-01T11:32:37;98566.59;;;11.81;83.70
77153;BME280;66124;51.146;17.072;2023-04-01T11:38:31;98576.80;;;12.31;81.63
77153;BME280;66124;51.146;17.072;2023-04-01T11:41:15;98584.79;;;12.19;81.08
77153;BME280;66124;51.146;17.072;2023-04-01T11:43:59;98595.30;;;11.93;80.58
77153;BME280;66124;51.146;17.072;2023-04-01T11:46:37;98599.27;;;11.55;80.48
77153;BME280;66124;51.146;17.072;2023-04-01T11:49:23;98603.08;;;11.19;80.71
77153;BME280;66124;51.146;17.072;2023-04-01T11:52:02;98603.04;;;10.86;81.31
77153;BME280;66124;51.146;17.072;2023-04-01T11:54:47;98601.53;;;10.65;81.95
77153;BME280;66124;51.146;17.072;2023-04-01T11:57:38;98597.40;;;10.48;82.22
77153;BME280;66124;51.146;17.072;2023-04-01T12:00:36;98595.80;;;10.38;82.57
77153;BME280;66124;51.146;17.072;2023-04-01T12:03:26;98599.55;;;10.35;82.96
77153;BME280;66124;51.146;17.072;2023-04-01T12:06:04;98600.14;;;10.34;83.13
77153;BME280;66124;51.146;17.072;2023-04-01T12:08:37;98601.69;;;10.36;83.47
77153;BME280;66124;51.146;17.072;2023-04-01T12:11:17;98601.52;;;10.38;83.62
77153;BME280;66124;51.146;17.072;2023-04-01T12:13:55;98607.81;;;10.41;83.58
77153;BME280;66124;51.146;17.072;2023-04-01T12:16:41;98609.51;;;10.45;83.53
77153;BME280;66124;51.146;17.072;2023-04-01T12:19:23;98615.09;;;10.51;83.65
77153;BME280;66124;51.146;17.072;2023-04-01T12:28:13;98606.95;;;10.73;83.23
77153;BME280;66124;51.146;17.072;2023-04-01T12:30:57;98609.34;;;10.81;82.87
77153;BME280;66124;51.146;17.072;2023-04-01T12:33:59;98607.88;;;10.91;82.69
77153;BME280;66124;51.146;17.072;2023-04-01T12:36:37;98605.27;;;11.05;82.12
77153;BME280;66124;51.146;17.072;2023-04-01T12:39:32;98606.29;;;11.15;82.50
77153;BME280;66124;51.146;17.072;2023-04-01T12:42:11;98603.69;;;11.26;82.05
77153;BME280;66124;51.146;17.072;2023-04-01T12:44:51;98606.09;;;11.34;81.60
77153;BME280;66124;51.146;17.072;2023-04-01T12:50:46;98605.41;;;11.51;81.09
77153;BME280;66124;51.146;17.072;2023-04-01T12:53:36;98608.96;;;11.63;80.92
77153;BME280;66124;51.146;17.072;2023-04-01T12:56:17;98613.80;;;11.86;80.40
77153;BME280;66124;51.146;17.072;2023-04-01T12:59:03;98608.40;;;12.19;80.36
77153;BME280;66124;51.146;17.072;2023-04-01T13:02:02;98613.15;;;12.50;79.47
77153;BME280;66124;51.146;17.072;2023-04-01T13:08:06;98609.85;;;12.99;78.53
77153;BME280;66124;51.146;17.072;2023-04-01T13:10:55;98619.11;;;12.99;77.63
77153;BME280;66124;51.146;17.072;2023-04-01T13:13:59;98617.87;;;12.93;77.36
77153;BME280;66124;51.146;17.072;2023-04-01T13:16:38;98626.59;;;12.88;76.94
77153;BME280;66124;51.146;17.072;2023-04-01T13:19:12;98614.06;;;12.76;76.68
77153;BME280;66124;51.146;17.072;2023-04-01T13:21:47;98629.91;;;12.77;76.57
77153;BME280;66124;51.146;17.072;2023-04-01T13:24:28;98634.98;;;12.71;76.33
77153;BME280;66124;51.146;17.072;2023-04-01T13:27:04;98637.05;;;12.69;75.84
77153;BME280;66124;51.146;17.072;2023-04-01T13:29:40;98636.31;;;12.65;75.86
77153;BME280;66124;51.146;17.072;2023-04-01T13:32:22;98640.34;;;12.58;75.63
77153;BME280;66124;51.146;17.072;2023-04-01T13:35:04;98647.27;;;12.49;75.34
77153;BME280;66124;51.146;17.072;2023-04-01T13:37:46;98647.55;;;12.34;75.30
77153;BME280;66124;51.146;17.072;2023-04-01T13:40:23;98654.95;;;12.22;75.71
77153;BME280;66124;51.146;17.072;2023-04-01T13:50:47;98658.48;;;12.01;76.35
77153;BME280;66124;51.146;17.072;2023-04-01T13:53:39;98668.02;;;11.98;76.64
77153;BME280;66124;51.146;17.072;2023-04-01T13:56:26;98661.51;;;11.97;76.76
77153;BME280;66124;51.146;17.072;2023-04-01T14:01:59;98669.71;;;11.96;76.74
77153;BME280;66124;51.146;17.072;2023-04-01T14:04:49;98668.20;;;11.94;76.93
77153;BME280;66124;51.146;17.072;2023-04-01T14:07:35;98665.77;;;11.90;77.01
77153;BME280;66124;51.146;17.072;2023-04-01T14:10:21;98668.42;;;11.89;77.58
77153;BME280;66124;51.146;17.072;2023-04-01T14:12:58;98669.42;;;11.92;77.35
77153;BME280;66124;51.146;17.072;2023-04-01T14:15:47;98671.62;;;11.98;77.28
77153;BME280;66124;51.146;17.072;2023-04-01T14:18:49;98671.99;;;12.03;77.33
77153;BME280;66124;51.146;17.072;2023-04-01T14:21:31;98658.13;;;11.98;76.97
77153;BME280;66124;51.146;17.072;2023-04-01T14:24:22;98664.42;;;12.06;76.89
77153;BME280;66124;51.146;17.072;2023-04-01T14:27:05;98670.29;;;12.06;76.62
77153;BME280;66124;51.146;17.072;2023-04-01T14:29:45;98670.40;;;12.04;76.47
77153;BME280;66124;51.146;17.072;2023-04-01T14:32:30;98671.75;;;12.01;76.52
77153;BME280;66124;51.146;17.072;2023-04-01T14:35:16;98679.66;;;11.97;76.54
77153;BME280;66124;51.146;17.072;2023-04-01T14:38:19;98687.22;;;11.90;76.71
77153;BME280;66124;51.146;17.072;2023-04-01T14:41:00;98688.80;;;11.84;76.47
77153;BME280;66124;51.146;17.072;2023-04-01T14:43:44;98694.17;;;11.78;76.42
77153;BME280;66124;51.146;17.072;2023-04-01T14:46:24;98698.55;;;11.69;76.11
77153;BME280;66124;51.146;17.072;2023-04-01T14:49:02;98702.41;;;11.59;76.34
77153;BME280;66124;51.146;17.072;2023-04-01T14:51:35;98709.61;;;11.51;76.89
77153;BME280;66124;51.146;17.072;2023-04-01T14:54:12;98711.25;;;11.43;77.26
77153;BME280;66124;51.146;17.072;2023-04-01T14:56:44;98713.06;;;11.38;77.43
77153;BME280;66124;51.146;17.072;2023-04-01T14:59:27;98716.39;;;11.34;77.46
77153;BME280;66124;51.146;17.072;2023-04-01T15:01:58;98713.70;;;11.31;78.06
77153;BME280;66124;51.146;17.072;2023-04-01T15:10:47;98722.39;;;11.21;78.52
77153;BME280;66124;51.146;17.072;2023-04-01T15:13:29;98726.96;;;11.15;79.17
77153;BME280;66124;51.146;17.072;2023-04-01T15:16:11;98725.60;;;11.10;79.31
77153;BME280;66124;51.146;17.072;2023-04-01T15:18:52;98725.51;;;11.07;79.35
77153;BME280;66124;51.146;17.072;2023-04-01T15:21:44;98726.33;;;11.06;79.49
77153;BME280;66124;51.146;17.072;2023-04-01T15:24:22;98729.82;;;11.05;79.65
77153;BME280;66124;51.146;17.072;2023-04-01T15:27:08;98728.50;;;11.03;80.05
77153;BME280;66124;51.146;17.072;2023-04-01T15:30:06;98735.39;;;11.00;80.39
77153;BME280;66124;51.146;17.072;2023-04-01T15:32:54;98736.32;;;11.00;80.40
77153;BME280;66124;51.146;17.072;2023-04-01T15:35:37;98738.33;;;10.98;80.46
77153;BME280;66124;51.146;17.072;2023-04-01T15:38:18;98739.00;;;10.97;80.79
77153;BME280;66124;51.146;17.072;2023-04-01T15:40:56;98743.02;;;10.96;80.33
77153;BME280;66124;51.146;17.072;2023-04-01T15:43:36;98742.17;;;10.96;80.75
77153;BME280;66124;51.146;17.072;2023-04-01T15:46:36;98743.86;;;10.98;80.69
77153;BME280;66124;51.146;17.072;2023-04-01T15:49:19;98744.61;;;11.00;80.72
77153;BME280;66124;51.146;17.072;2023-04-01T15:51:56;98743.44;;;10.99;80.62
77153;BME280;66124;51.146;17.072;2023-04-01T15:57:27;98750.38;;;10.95;80.60
77153;BME280;66124;51.146;17.072;2023-04-01T16:00:13;98747.24;;;10.96;81.21
77153;BME280;66124;51.146;17.072;2023-04-01T16:02:50;98748.40;;;10.98;81.12
77153;BME280;66124;51.146;17.072;2023-04-01T16:05:35;98750.21;;;11.00;81.25
77153;BME280;66124;51.146;17.072;2023-04-01T16:08:23;98757.11;;;11.03;81.15
77153;BME280;66124;51.146;17.072;2023-04-01T16:11:06;98758.64;;;11.09;81.39
77153;BME280;66124;51.146;17.072;2023-04-01T16:13:46;98759.14;;;11.11;81.08